createdAt,value
2022-11-15T00:00:53.943Z,89.47
2022-11-15T00:03:22.106Z,91.22
2022-11-15T00:05:48.804Z,88.62
2022-11-15T00:08:15.656Z,89.93
2022-11-15T00:10:42.373Z,90.31
2022-11-15T00:13:09.775Z,88.45
2022-11-15T00:15:37.643Z,87.93
2022-11-15T00:18:05.401Z,87.05
2022-11-15T00:20:32.601Z,87.35
2022-11-15T00:22:59.354Z,91.56
2022-11-15T00:25:26.191Z,87.72
2022-11-15T00:27:56.352Z,87.62
2022-11-15T00:30:23.216Z,87.48
2022-11-15T00:32:50.106Z,91.52
2022-11-15T00:35:17.023Z,89.51
2022-11-15T00:37:43.824Z,90.86
2022-11-15T00:40:11.021Z,89.14
2022-11-15T00:42:37.817Z,90.33
2022-11-15T00:45:04.786Z,89.79
2022-11-15T00:47:31.724Z,88.65
2022-11-15T00:49:59.275Z,88.97
2022-11-15T00:52:26.538Z,89.26
2022-11-15T00:54:54.389Z,93.05
2022-11-15T00:57:21.340Z,89.94
2022-11-15T00:59:48.193Z,91.26
2022-11-15T01:02:15.009Z,92.56
2022-11-15T01:04:41.979Z,94.23
2022-11-15T01:07:08.807Z,90.30
2022-11-15T01:09:35.660Z,89.29
2022-11-15T01:12:02.877Z,89.01
2022-11-15T01:14:29.739Z,90.03
2022-11-15T01:16:56.731Z,89.17
2022-11-15T01:19:23.602Z,88.98
2022-11-15T01:21:51.180Z,89.42
2022-11-15T01:24:18.299Z,89.44
2022-11-15T01:26:45.337Z,87.67
2022-11-15T01:29:12.106Z,88.56
2022-11-15T01:31:39.297Z,92.01
2022-11-15T01:34:06.359Z,92.66
2022-11-15T01:36:33.175Z,90.45
2022-11-15T01:39:00.343Z,89.60
2022-11-15T01:41:29.940Z,88.12
2022-11-15T01:44:00.619Z,89.97
2022-11-15T01:46:30.374Z,90.01
2022-11-15T01:48:59.011Z,92.11
2022-11-15T01:51:27.001Z,91.68
2022-11-15T01:53:56.103Z,91.24
2022-11-15T01:56:25.131Z,89.02
2022-11-15T01:58:53.108Z,88.47
2022-11-15T02:01:20.653Z,90.60
2022-11-15T02:03:50.668Z,89.02
2022-11-15T02:06:17.555Z,94.12
2022-11-15T02:08:45.276Z,95.00
2022-11-15T02:11:12.117Z,91.51
2022-11-15T02:13:38.997Z,91.21
2022-11-15T02:16:26.964Z,92.64
2022-11-15T02:18:58.020Z,89.96
2022-11-15T02:21:36.003Z,94.60
2022-11-15T02:24:09.049Z,96.60
2022-11-15T02:26:54.692Z,93.09
2022-11-15T02:29:31.652Z,94.35
2022-11-15T02:32:21.874Z,92.47
2022-11-15T02:34:55.555Z,93.54
2022-11-15T02:37:28.478Z,91.05
2022-11-15T02:40:02.202Z,89.64
2022-11-15T02:42:50.700Z,91.43
2022-11-15T02:45:26.909Z,91.54
2022-11-15T02:47:55.585Z,91.15
2022-11-15T02:50:25.781Z,91.66
2022-11-15T02:52:53.014Z,91.17
2022-11-15T02:55:28.474Z,91.55
2022-11-15T02:58:27.221Z,92.35
2022-11-15T03:01:08.451Z,90.83
2022-11-15T03:03:35.314Z,95.44
2022-11-15T03:06:02.291Z,94.58
2022-11-15T03:08:37.978Z,93.98
2022-11-15T03:11:05.346Z,95.08
2022-11-15T03:13:37.762Z,95.57
2022-11-15T03:16:06.914Z,95.03
2022-11-15T03:18:34.925Z,93.91
2022-11-15T03:21:04.537Z,98.13
2022-11-15T03:23:32.591Z,93.56
2022-11-15T03:26:00.907Z,96.49
2022-11-15T03:28:35.549Z,95.47
2022-11-15T03:31:23.379Z,92.38
2022-11-15T03:33:54.009Z,89.34
2022-11-15T03:36:22.523Z,88.58
2022-11-15T03:38:49.466Z,88.74
2022-11-15T03:41:30.462Z,89.09
2022-11-15T03:44:01.303Z,91.60
2022-11-15T03:46:39.123Z,89.33
2022-11-15T03:49:08.408Z,87.39
2022-11-15T03:51:35.256Z,88.34
2022-11-15T03:54:04.304Z,88.43
2022-11-15T03:56:31.085Z,88.30
2022-11-15T03:58:57.820Z,87.39
2022-11-15T04:01:24.738Z,88.89
2022-11-15T04:03:51.821Z,88.65
2022-11-15T04:06:18.713Z,86.40
2022-11-15T04:08:45.481Z,85.43
2022-11-15T04:11:12.174Z,87.63
2022-11-15T04:13:38.941Z,86.37
2022-11-15T04:16:05.978Z,87.83
2022-11-15T04:18:32.716Z,90.15
2022-11-15T04:21:18.102Z,89.94
2022-11-15T04:24:03.586Z,88.58
2022-11-15T04:26:30.353Z,86.37
2022-11-15T04:29:15.980Z,87.60
2022-11-15T04:31:43.225Z,88.88
2022-11-15T04:34:11.219Z,86.12
2022-11-15T04:36:56.263Z,88.54
2022-11-15T04:39:23.018Z,86.98
2022-11-15T04:41:49.768Z,90.02
2022-11-15T04:44:17.670Z,89.42
2022-11-15T04:46:44.950Z,88.28
2022-11-15T04:49:11.787Z,88.86
2022-11-15T04:51:38.588Z,92.48
2022-11-15T04:54:05.374Z,88.56
2022-11-15T04:56:32.093Z,88.41
2022-11-15T04:58:59.259Z,86.58
2022-11-15T05:01:26.091Z,87.40
2022-11-15T05:04:11.632Z,89.54
2022-11-15T05:06:38.419Z,89.98
2022-11-15T05:09:07.675Z,87.64
2022-11-15T05:11:34.623Z,86.39
2022-11-15T05:14:01.365Z,86.78
2022-11-15T05:16:28.166Z,87.06
2022-11-15T05:18:55.218Z,90.36
2022-11-15T05:21:22.143Z,85.17
2022-11-15T05:23:48.894Z,86.21
2022-11-15T05:26:17.235Z,85.86
2022-11-15T05:28:44.146Z,88.17
2022-11-15T05:31:14.811Z,87.34
2022-11-15T05:33:42.311Z,88.76
2022-11-15T05:36:09.549Z,87.57
2022-11-15T05:38:36.345Z,86.14
2022-11-15T05:41:03.574Z,86.79
2022-11-15T05:43:32.113Z,86.45
2022-11-15T05:46:00.219Z,87.62
2022-11-15T05:48:27.165Z,88.73
2022-11-15T05:50:54.152Z,88.42
2022-11-15T05:53:23.016Z,86.60
2022-11-15T05:55:50.012Z,87.93
2022-11-15T05:58:16.817Z,89.09
2022-11-15T06:00:46.175Z,88.47
2022-11-15T06:03:15.838Z,87.12
2022-11-15T06:05:42.655Z,88.43
2022-11-15T06:08:09.447Z,87.89
2022-11-15T06:10:36.280Z,87.78
2022-11-15T06:13:04.491Z,87.91
2022-11-15T06:15:31.442Z,86.74
2022-11-15T06:18:01.182Z,86.40
2022-11-15T06:20:28.928Z,86.80
2022-11-15T06:25:51.208Z,88.94
2022-11-15T06:28:18.733Z,89.34
2022-11-15T06:30:49.214Z,87.71
2022-11-15T06:33:19.904Z,88.20
2022-11-15T06:35:49.985Z,85.50
2022-11-15T06:38:17.228Z,86.38
2022-11-15T06:40:44.291Z,86.78
2022-11-15T06:43:11.280Z,88.23
2022-11-15T06:45:38.328Z,91.65
2022-11-15T06:48:05.452Z,90.07
2022-11-15T06:50:32.213Z,88.76
2022-11-15T06:53:03.320Z,90.12
2022-11-15T06:55:30.235Z,90.83
2022-11-15T06:57:57.129Z,92.64
2022-11-15T07:00:24.239Z,91.13
2022-11-15T07:02:52.377Z,89.25
2022-11-15T07:05:22.265Z,89.66
2022-11-15T07:07:59.582Z,90.07
2022-11-15T07:10:38.675Z,90.20
2022-11-15T07:13:08.590Z,92.42
2022-11-15T07:15:36.618Z,89.98
2022-11-15T07:18:28.987Z,87.66
2022-11-15T07:21:13.185Z,86.83
2022-11-15T07:26:41.336Z,87.19
2022-11-15T07:29:11.284Z,87.53
2022-11-15T07:31:44.700Z,87.82
2022-11-15T07:34:32.977Z,88.68
2022-11-15T07:37:15.088Z,88.70
2022-11-15T07:39:46.293Z,90.76
2022-11-15T07:42:47.184Z,87.92
2022-11-15T07:45:42.896Z,90.64
2022-11-15T07:54:41.593Z,89.94
2022-11-15T07:59:59.280Z,89.68
2022-11-15T08:02:30.943Z,92.61
2022-11-15T08:04:57.963Z,93.33
2022-11-15T08:07:26.989Z,92.32
2022-11-15T08:09:58.202Z,91.66
2022-11-15T08:12:28.433Z,89.45
2022-11-15T08:14:59.307Z,90.42
2022-11-15T08:17:34.611Z,90.18
2022-11-15T08:20:01.566Z,91.25
2022-11-15T08:22:29.469Z,89.20
2022-11-15T08:24:58.304Z,89.44
2022-11-15T08:27:27.666Z,89.13
2022-11-15T08:29:59.308Z,90.14
2022-11-15T08:32:26.577Z,90.23
2022-11-15T08:34:58.739Z,89.98
2022-11-15T08:37:56.918Z,91.79
2022-11-15T08:40:33.623Z,88.53
2022-11-15T08:43:21.750Z,89.80
2022-11-15T08:46:13.707Z,89.28
2022-11-15T08:48:48.507Z,90.82
2022-11-15T08:51:17.615Z,88.24
2022-11-15T08:53:52.315Z,89.41
2022-11-15T08:56:33.621Z,88.49
2022-11-15T08:59:15.371Z,88.19
2022-11-15T09:27:26.462Z,83.32
2022-11-15T09:30:28.017Z,84.67
2022-11-15T09:33:10.127Z,83.29
2022-11-15T09:35:41.053Z,86.79
2022-11-15T09:38:08.754Z,85.11
2022-11-15T09:40:38.379Z,83.79
2022-11-15T09:43:36.421Z,84.01
2022-11-15T09:46:29.025Z,84.45
2022-11-15T09:48:58.427Z,85.20
2022-11-15T09:51:48.394Z,82.92
2022-11-15T10:00:38.935Z,84.63
2022-11-15T10:03:16.073Z,84.29
2022-11-15T10:05:47.217Z,85.36
2022-11-15T10:08:29.599Z,87.45
2022-11-15T10:11:30.597Z,84.71
2022-11-15T10:13:51.463Z,84.64
2022-11-15T10:16:18.681Z,84.05
2022-11-15T10:19:06.869Z,84.00
2022-11-15T10:21:53.081Z,83.01
2022-11-15T10:24:25.700Z,82.31
2022-11-15T10:26:56.232Z,80.79
2022-11-15T10:29:28.305Z,80.25
2022-11-15T10:31:57.312Z,79.70
2022-11-15T10:34:27.879Z,79.25
2022-11-15T10:37:23.667Z,79.13
2022-11-15T10:40:09.588Z,80.66
2022-11-15T10:42:38.326Z,83.78
2022-11-15T10:45:23.830Z,84.35
2022-11-15T10:47:57.607Z,85.36
2022-11-15T10:50:29.204Z,84.04
2022-11-15T10:53:00.905Z,83.33
2022-11-15T10:55:31.290Z,84.37
2022-11-15T10:58:03.915Z,85.35
2022-11-15T11:00:33.351Z,82.57
2022-11-15T11:03:00.407Z,84.26
2022-11-15T11:05:30.199Z,83.74
2022-11-15T11:08:04.111Z,83.00
2022-11-15T11:13:29.011Z,83.39
2022-11-15T11:16:15.041Z,82.75
2022-11-15T11:18:47.864Z,85.86
2022-11-15T11:21:18.581Z,83.21
2022-11-15T11:24:04.720Z,85.42
2022-11-15T11:26:39.327Z,83.89
2022-11-15T11:29:22.805Z,87.65
2022-11-15T11:31:52.766Z,90.91
2022-11-15T11:34:28.752Z,88.31
2022-11-15T11:36:58.488Z,88.54
2022-11-15T11:39:45.550Z,90.99
2022-11-15T11:42:19.555Z,86.72
2022-11-15T11:44:58.598Z,86.82
2022-11-15T11:47:29.902Z,89.42
2022-11-15T11:50:19.381Z,87.63
2022-11-15T11:53:07.382Z,87.63
2022-11-15T11:55:39.862Z,89.15
2022-11-15T11:58:24.142Z,88.58
2022-11-15T12:01:12.555Z,88.45
2022-11-15T12:03:45.722Z,88.11
2022-11-15T12:06:12.574Z,88.31
2022-11-15T12:09:02.747Z,87.10
2022-11-15T12:11:51.481Z,87.23
2022-11-15T12:20:30.177Z,89.05
2022-11-15T12:23:04.908Z,89.17
2022-11-15T12:25:46.092Z,88.47
2022-11-15T12:28:28.597Z,88.19
2022-11-15T12:31:19.300Z,87.93
2022-11-15T12:33:48.794Z,86.32
2022-11-15T12:36:23.998Z,86.86
2022-11-15T12:39:01.133Z,87.08
2022-11-15T12:41:29.408Z,88.70
2022-11-15T12:43:58.555Z,86.77
2022-11-15T12:46:31.246Z,87.82
2022-11-15T12:49:04.897Z,87.69
2022-11-15T12:51:43.804Z,86.49
2022-11-15T12:57:17.859Z,90.20
2022-11-15T13:00:05.348Z,87.40
2022-11-15T13:02:34.637Z,87.57
2022-11-15T13:05:21.084Z,88.45
2022-11-15T13:07:51.870Z,87.72
2022-11-15T13:10:28.911Z,89.69
2022-11-15T13:12:56.508Z,89.22
2022-11-15T13:15:46.136Z,91.86
2022-11-15T13:18:32.102Z,89.76
2022-11-15T13:21:23.875Z,90.05
2022-11-15T13:23:55.175Z,87.90
2022-11-15T13:26:22.445Z,90.05
2022-11-15T13:28:55.918Z,89.13
2022-11-15T13:31:34.702Z,89.35
2022-11-15T13:34:07.323Z,90.02
2022-11-15T13:36:44.918Z,87.10
2022-11-15T13:39:35.750Z,87.95
2022-11-15T13:42:03.042Z,86.69
2022-11-15T13:44:33.672Z,87.41
2022-11-15T13:47:09.187Z,88.02
2022-11-15T13:49:36.563Z,86.96
2022-11-15T13:52:07.976Z,85.76
2022-11-15T13:54:41.545Z,87.02
2022-11-15T13:57:19.233Z,88.79
2022-11-15T13:59:59.031Z,86.47
2022-11-15T14:02:37.734Z,87.71
2022-11-15T14:05:30.304Z,88.00
2022-11-15T14:08:01.550Z,88.18
2022-11-15T14:10:34.747Z,88.18
2022-11-15T14:13:06.325Z,88.50
2022-11-15T14:15:34.420Z,86.00
2022-11-15T14:18:04.069Z,86.50
2022-11-15T14:20:41.287Z,86.17
2022-11-15T14:23:39.066Z,86.94
2022-11-15T14:26:14.550Z,85.38
2022-11-15T14:28:57.747Z,88.27
2022-11-15T14:31:28.368Z,88.85
2022-11-15T14:34:07.472Z,90.75
2022-11-15T14:36:42.633Z,88.54
2022-11-15T14:39:12.507Z,87.04
2022-11-15T14:41:41.205Z,87.50
2022-11-15T14:44:14.138Z,84.92
2022-11-15T14:46:43.233Z,85.60
2022-11-15T14:49:10.100Z,87.64
2022-11-15T14:51:39.326Z,86.78
2022-11-15T14:54:12.083Z,85.61
2022-11-15T14:56:48.290Z,84.31
2022-11-15T14:59:23.736Z,86.76
2022-11-15T15:01:56.993Z,84.35
2022-11-15T15:04:28.208Z,83.11
2022-11-15T15:07:07.120Z,82.25
2022-11-15T15:12:23.028Z,80.96
2022-11-15T15:14:58.893Z,79.95
2022-11-15T15:17:29.001Z,79.15
2022-11-15T15:20:13.297Z,78.82
2022-11-15T15:22:40.598Z,78.27
2022-11-15T15:25:44.601Z,77.56
2022-11-15T15:28:11.418Z,77.20
2022-11-15T15:30:38.487Z,76.51
2022-11-15T15:33:05.359Z,77.62
2022-11-15T15:35:33.886Z,76.91
2022-11-15T15:38:01.139Z,77.51
2022-11-15T15:40:29.725Z,78.02
2022-11-15T15:42:56.707Z,78.07
2022-11-15T15:45:23.489Z,78.29
2022-11-15T15:47:56.594Z,80.25
2022-11-15T15:56:41.260Z,80.93
2022-11-15T15:59:27.987Z,81.47
2022-11-15T16:02:15.430Z,83.56
2022-11-15T16:13:40.313Z,87.35
2022-11-15T16:22:58.070Z,86.53
2022-11-15T16:26:11.565Z,86.97
2022-11-15T16:34:41.100Z,88.89
2022-11-15T16:38:05.125Z,87.81
2022-11-15T16:43:48.358Z,89.97
2022-11-15T16:46:50.959Z,88.91
2022-11-15T17:04:45.179Z,84.06
2022-11-15T17:07:36.014Z,84.70
2022-11-15T17:13:10.528Z,82.53
2022-11-15T17:16:08.405Z,83.88
2022-11-15T17:19:13.407Z,80.90
2022-11-15T17:21:47.639Z,82.90
2022-11-15T17:25:07.656Z,83.42
2022-11-15T17:27:53.233Z,83.15
2022-11-15T17:30:22.950Z,80.71
2022-11-15T17:35:58.937Z,81.29
2022-11-15T17:44:31.374Z,87.07
2022-11-15T17:47:13.558Z,84.65
2022-11-15T17:52:38.270Z,84.47
2022-11-15T17:55:15.946Z,82.80
2022-11-15T17:58:18.649Z,85.61
2022-11-15T18:09:47.101Z,84.12
2022-11-15T18:12:21.406Z,84.06
2022-11-15T18:24:21.030Z,86.99
2022-11-15T18:30:32.213Z,86.25
2022-11-15T18:33:13.314Z,85.57
2022-11-15T18:38:53.188Z,86.09
2022-11-15T18:41:46.851Z,84.86
2022-11-15T18:44:25.704Z,85.14
2022-11-15T18:47:26.613Z,83.05
2022-11-15T18:53:18.349Z,83.30
2022-11-15T18:55:56.392Z,83.11
2022-11-15T18:59:11.675Z,82.80
2022-11-15T19:01:54.329Z,83.55
2022-11-15T19:10:20.572Z,85.18
2022-11-15T19:16:03.818Z,84.19
2022-11-15T19:30:39.227Z,86.16
2022-11-15T19:47:23.923Z,88.29
2022-11-15T19:50:29.765Z,86.81
2022-11-15T19:56:27.263Z,89.90
2022-11-15T20:02:19.912Z,87.80
2022-11-15T20:20:10.275Z,90.00
2022-11-15T20:23:16.955Z,86.69
2022-11-15T20:29:02.904Z,88.32
2022-11-15T20:37:36.881Z,88.71
2022-11-15T20:40:47.937Z,88.19
2022-11-15T20:43:42.677Z,87.20
2022-11-15T20:46:21.908Z,91.73
2022-11-15T20:57:52.820Z,91.44
2022-11-15T21:03:59.761Z,86.79
2022-11-15T21:10:32.754Z,86.07
2022-11-15T21:16:06.564Z,87.61
2022-11-15T21:21:42.851Z,87.43
2022-11-15T21:24:30.676Z,89.69
2022-11-15T21:30:25.219Z,90.37
2022-11-15T21:33:02.701Z,91.55
2022-11-15T21:35:53.612Z,90.66
2022-11-15T21:41:28.848Z,93.31
2022-11-15T21:44:24.494Z,92.23
2022-11-15T21:47:35.264Z,96.70
2022-11-15T21:59:01.342Z,91.72
2022-11-15T22:02:10.969Z,91.03
2022-11-15T22:04:57.548Z,93.88
2022-11-15T22:07:48.370Z,92.40
2022-11-15T22:10:22.317Z,91.99
2022-11-15T22:19:02.652Z,90.92
2022-11-15T22:21:37.169Z,93.34
2022-11-15T22:36:42.412Z,88.68
2022-11-15T22:42:33.991Z,87.74
2022-11-15T22:45:33.189Z,86.43
2022-11-15T22:54:11.861Z,86.53
2022-11-15T22:57:25.604Z,88.38
2022-11-15T23:03:25.239Z,91.50
2022-11-15T23:14:58.314Z,88.33
2022-11-15T23:17:56.148Z,88.08
2022-11-15T23:21:01.502Z,85.82
2022-11-15T23:23:45.022Z,86.83
2022-11-15T23:26:25.803Z,86.71
2022-11-15T23:29:20.207Z,86.45
2022-11-15T23:38:36.398Z,87.88
2022-11-15T23:41:20.865Z,88.45
2022-11-15T23:44:45.553Z,86.31
2022-11-15T23:47:44.937Z,83.97
2022-11-15T23:50:39.434Z,82.72
2022-11-15T23:53:39.551Z,81.91
2022-11-15T23:59:22.340Z,85.78
